Portada
METAR-TAF:

METAR-TAF

Aeroports :

Tientsin, Xina

latitud: 39-11N, longitud: 117-21E, altitud: 3 m

Observació

L'informe es va fer fa 34 minuts, a les 11:30 UTC
Vent 8 kt del Sud/Sud-Est
Temperatura 3°C
Humitat 56%
Pressió 1027 hPa
Visibilitat 10 km o més
sense núvols per sota de 1500 mi sense presència de cumulonimbus.

METAR: ZBTJ 271130Z 16004MPS CAVOK 03/M05 Q1027 NOSIG

Hora: 20:04 (12:04 UTC)

Pronòstic

L'informe es va fer fa 3 hores i 2 minuts, a les 09:02 UTC
Pronòstic vàlid del 27 a les 12 UTC al 28 a les 12 UTC
Vent 6 kt del Sud
Visibilitat: 5000 m
calitja

TAF: ZBTJ 270902Z 2712/2812 18003MPS 5000 HZ NSC TX09/2807Z TN00/2722Z

Observacions i pronòstics meteorològics de més de 4000 aeroports (METAR i TAF).

Les estacions disponibles són els punts grocs i vermells al mapa.

Posi el ratolí al punt desitjat per veure el nom de l'estació.

Feu clic per veure les observacions i els pronòstics meteorològics.

Per canviar el mapa: feu clic els botons verds amb una creu de color negre per apropar; al botó verd amb un guió per allunyar la imatge; o en les fletxes verdes per a mapes adjacents.


METAR-TAF: